createdAt,value
2023-09-27T00:01:50.441Z,62.11
2023-09-27T00:04:17.153Z,62.15
2023-09-27T00:06:43.960Z,62.76
2023-09-27T00:09:10.667Z,63.01
2023-09-27T00:11:37.352Z,62.68
2023-09-27T00:14:04.090Z,62.97
2023-09-27T00:16:31.010Z,63.43
2023-09-27T00:18:57.933Z,63.81
2023-09-27T00:21:24.802Z,64.37
2023-09-27T00:23:51.635Z,64.35
2023-09-27T00:26:18.466Z,64.65
2023-09-27T00:28:45.276Z,65.06
2023-09-27T00:31:12.063Z,65.30
2023-09-27T00:33:38.822Z,65.28
2023-09-27T00:36:05.500Z,65.37
2023-09-27T00:38:32.842Z,65.56
2023-09-27T00:40:59.877Z,65.42
2023-09-27T00:43:29.866Z,65.78
2023-09-27T00:46:06.179Z,65.80
2023-09-27T00:48:34.171Z,65.68
2023-09-27T00:51:00.944Z,65.87
2023-09-27T00:53:30.213Z,66.06
2023-09-27T00:55:56.976Z,66.02
2023-09-27T00:58:23.788Z,65.72
2023-09-27T01:00:51.210Z,66.45
2023-09-27T01:03:18.248Z,66.07
2023-09-27T01:05:45.884Z,65.66
2023-09-27T01:08:12.789Z,65.98
2023-09-27T01:10:39.548Z,66.24
2023-09-27T01:13:06.343Z,64.52
2023-09-27T01:15:33.335Z,64.64
2023-09-27T01:18:01.446Z,64.91
2023-09-27T01:20:29.754Z,65.25
2023-09-27T01:22:58.314Z,65.02
2023-09-27T01:25:30.068Z,64.84
2023-09-27T01:28:07.526Z,64.88
2023-09-27T01:30:34.474Z,64.93
2023-09-27T01:33:01.149Z,65.06
2023-09-27T01:35:28.018Z,65.09
2023-09-27T01:37:54.970Z,64.96
2023-09-27T01:40:24.408Z,64.86
2023-09-27T01:42:51.189Z,65.02
2023-09-27T01:45:18.005Z,65.15
2023-09-27T01:47:45.485Z,65.37
2023-09-27T01:50:13.884Z,65.42
2023-09-27T01:52:40.848Z,65.48
2023-09-27T01:55:09.262Z,65.80
2023-09-27T01:57:35.819Z,66.17
2023-09-27T02:00:02.477Z,66.61
2023-09-27T02:02:29.957Z,66.58
2023-09-27T02:04:56.820Z,66.76
2023-09-27T02:07:23.638Z,66.25
2023-09-27T02:09:50.401Z,66.63
2023-09-27T02:12:17.120Z,66.21
2023-09-27T02:14:43.863Z,66.55
2023-09-27T02:17:11.144Z,66.49
2023-09-27T02:19:37.988Z,66.74
2023-09-27T02:22:04.806Z,66.60
2023-09-27T02:24:31.547Z,66.91
2023-09-27T02:26:58.258Z,66.80
2023-09-27T02:29:25.006Z,66.88
2023-09-27T02:31:51.850Z,66.68
2023-09-27T02:34:18.567Z,66.97
2023-09-27T02:36:46.979Z,66.64
2023-09-27T02:39:13.531Z,66.84
2023-09-27T02:41:40.631Z,67.06
2023-09-27T02:44:07.662Z,67.08
2023-09-27T02:46:34.320Z,66.97
2023-09-27T02:49:01.111Z,67.01
2023-09-27T02:51:28.057Z,67.23
2023-09-27T02:53:54.735Z,67.28
2023-09-27T02:56:21.502Z,67.22
2023-09-27T02:58:48.449Z,67.14
2023-09-27T03:01:15.181Z,67.02
2023-09-27T03:03:42.083Z,67.07
2023-09-27T03:06:16.046Z,67.21
2023-09-27T03:08:44.357Z,67.35
2023-09-27T03:11:11.391Z,67.39
2023-09-27T03:13:38.142Z,67.52
2023-09-27T03:16:05.433Z,67.80
2023-09-27T03:18:32.799Z,67.81
2023-09-27T03:21:00.442Z,68.07
2023-09-27T03:23:28.301Z,67.83
2023-09-27T03:25:56.801Z,68.26
2023-09-27T03:28:23.978Z,68.57
2023-09-27T03:30:50.760Z,68.37
2023-09-27T03:33:17.842Z,68.46
2023-09-27T03:35:44.731Z,68.51
2023-09-27T03:38:12.503Z,68.43
2023-09-27T03:40:41.239Z,68.77
2023-09-27T03:43:07.890Z,68.73
2023-09-27T03:45:35.397Z,69.09
2023-09-27T03:48:02.325Z,69.11
2023-09-27T03:50:29.314Z,69.34
2023-09-27T03:52:59.606Z,69.64
2023-09-27T03:55:26.751Z,69.61
2023-09-27T03:57:53.668Z,69.81
2023-09-27T04:00:21.932Z,70.01
2023-09-27T04:02:49.079Z,69.83
2023-09-27T04:05:16.511Z,70.38
2023-09-27T04:07:43.410Z,70.08
2023-09-27T04:10:10.375Z,70.15
2023-09-27T04:12:37.611Z,70.08
2023-09-27T04:15:11.202Z,70.12
2023-09-27T04:17:39.072Z,70.19
2023-09-27T04:20:15.775Z,70.42
2023-09-27T04:22:48.310Z,70.33
2023-09-27T04:25:15.981Z,70.05
2023-09-27T04:27:47.489Z,69.38
2023-09-27T04:30:15.532Z,68.84
2023-09-27T04:32:45.633Z,69.07
2023-09-27T04:35:13.605Z,69.03
2023-09-27T04:37:40.794Z,68.04
2023-09-27T04:40:17.990Z,67.63
2023-09-27T04:42:46.050Z,68.06
2023-09-27T04:45:13.791Z,67.36
2023-09-27T04:47:41.879Z,66.86
2023-09-27T04:50:11.908Z,67.51
2023-09-27T04:52:39.174Z,67.92
2023-09-27T04:55:06.547Z,67.32
2023-09-27T04:57:33.426Z,66.94
2023-09-27T05:00:00.326Z,67.30
2023-09-27T05:02:28.429Z,66.47
2023-09-27T05:04:55.253Z,66.71
2023-09-27T05:07:22.058Z,66.85
2023-09-27T05:09:48.917Z,67.19
2023-09-27T05:12:15.877Z,67.11
2023-09-27T05:14:42.650Z,67.25
2023-09-27T05:17:10.342Z,66.59
2023-09-27T05:19:37.284Z,65.22
2023-09-27T05:22:04.973Z,64.77
2023-09-27T05:24:34.140Z,64.70
2023-09-27T05:27:04.668Z,63.82
2023-09-27T05:29:31.485Z,64.67
2023-09-27T05:31:58.383Z,64.68
2023-09-27T05:34:25.257Z,63.74
2023-09-27T05:36:52.013Z,63.74
2023-09-27T05:39:18.865Z,63.82
2023-09-27T05:41:45.891Z,62.64
2023-09-27T05:44:12.585Z,62.51
2023-09-27T05:46:40.851Z,62.80
2023-09-27T05:49:10.588Z,62.68
2023-09-27T05:51:37.400Z,63.01
2023-09-27T05:54:04.300Z,61.70
2023-09-27T05:56:31.309Z,62.34
2023-09-27T05:59:00.715Z,60.82
2023-09-27T06:01:27.577Z,62.79
2023-09-27T06:03:54.492Z,61.09
2023-09-27T06:06:21.366Z,61.20
2023-09-27T06:08:48.129Z,60.98
2023-09-27T06:11:14.864Z,60.43
2023-09-27T06:13:41.598Z,60.01
2023-09-27T06:16:20.936Z,61.25
2023-09-27T06:18:48.264Z,60.75
2023-09-27T06:21:15.236Z,60.51
2023-09-27T06:23:42.481Z,60.48
2023-09-27T06:26:10.317Z,60.82
2023-09-27T06:28:39.337Z,61.12
2023-09-27T06:31:09.108Z,61.35
2023-09-27T06:33:39.807Z,62.02
2023-09-27T06:36:09.600Z,61.20
2023-09-27T06:38:36.801Z,59.36
2023-09-27T06:41:04.170Z,59.82
2023-09-27T06:43:32.795Z,59.21
2023-09-27T06:46:05.543Z,57.58
2023-09-27T06:48:32.477Z,57.72
2023-09-27T06:50:59.254Z,58.21
2023-09-27T06:53:29.952Z,55.35
2023-09-27T06:56:00.285Z,56.33
2023-09-27T06:58:27.117Z,55.17
2023-09-27T07:00:53.932Z,55.02
2023-09-27T07:03:26.386Z,55.12
2023-09-27T07:05:53.709Z,53.94
2023-09-27T07:08:21.085Z,50.83
2023-09-27T07:10:48.445Z,50.14
2023-09-27T07:13:15.999Z,49.93
2023-09-27T07:15:47.357Z,51.04
2023-09-27T07:18:14.369Z,48.06
2023-09-27T07:20:41.857Z,48.09
2023-09-27T07:23:09.057Z,49.72
2023-09-27T07:25:39.187Z,48.88
2023-09-27T07:28:06.618Z,47.32
2023-09-27T07:30:34.948Z,46.84
2023-09-27T07:33:04.829Z,47.82
2023-09-27T07:35:34.841Z,46.04
2023-09-27T07:38:02.325Z,47.90
2023-09-27T07:40:29.236Z,47.42
2023-09-27T07:42:56.274Z,48.00
2023-09-27T07:45:23.592Z,48.14
2023-09-27T07:47:54.634Z,46.56
2023-09-27T07:50:23.230Z,46.00
2023-09-27T07:52:50.067Z,46.80
2023-09-27T07:55:18.927Z,47.36
2023-09-27T07:57:47.182Z,47.99
2023-09-27T08:00:17.503Z,47.93
2023-09-27T08:02:44.746Z,48.72
2023-09-27T08:05:11.805Z,48.56
2023-09-27T08:07:39.142Z,49.99
2023-09-27T08:12:42.517Z,51.30
2023-09-27T08:15:09.879Z,50.92
2023-09-27T08:17:36.723Z,50.33
2023-09-27T08:20:06.998Z,51.58
2023-09-27T08:22:37.195Z,49.49
2023-09-27T08:25:06.846Z,50.39
2023-09-27T08:27:33.553Z,50.05
2023-09-27T08:30:01.778Z,50.57
2023-09-27T08:32:28.574Z,50.71
2023-09-27T08:34:55.401Z,51.87
2023-09-27T08:37:22.138Z,51.60
2023-09-27T08:39:48.976Z,50.72
2023-09-27T08:42:15.768Z,51.35
2023-09-27T08:44:42.650Z,51.32
2023-09-27T08:47:09.503Z,52.37
2023-09-27T08:49:36.411Z,51.98
2023-09-27T08:52:03.620Z,52.76
2023-09-27T08:54:30.535Z,52.31
2023-09-27T08:56:57.343Z,53.44
2023-09-27T08:59:24.208Z,56.14
2023-09-27T09:01:52.035Z,53.60
2023-09-27T09:04:18.902Z,54.55
2023-09-27T09:06:45.932Z,54.50
2023-09-27T09:09:13.247Z,53.01
2023-09-27T09:11:50.128Z,52.32
2023-09-27T09:14:23.227Z,52.87
2023-09-27T09:16:53.484Z,52.85
2023-09-27T09:19:41.044Z,52.58
2023-09-27T09:22:10.414Z,52.53
2023-09-27T09:24:37.451Z,52.34
2023-09-27T09:27:12.622Z,52.74
2023-09-27T09:29:51.775Z,52.71
2023-09-27T09:32:22.454Z,52.52
2023-09-27T09:34:51.208Z,52.11
2023-09-27T09:37:18.635Z,52.42
2023-09-27T09:39:46.107Z,52.06
2023-09-27T09:42:12.943Z,54.12
2023-09-27T09:44:40.628Z,53.57
2023-09-27T09:47:11.754Z,52.70
2023-09-27T09:49:38.588Z,53.60
2023-09-27T09:52:05.559Z,53.06
2023-09-27T09:54:48.023Z,52.52
2023-09-27T09:57:24.819Z,51.94
2023-09-27T10:00:13.701Z,51.30
2023-09-27T10:02:51.457Z,51.52
2023-09-27T10:05:22.697Z,50.65
2023-09-27T10:07:50.433Z,51.62
2023-09-27T10:10:20.708Z,51.02
2023-09-27T10:12:48.289Z,50.78
2023-09-27T10:15:18.503Z,51.86
2023-09-27T10:17:45.889Z,52.92
2023-09-27T10:20:19.501Z,50.69
2023-09-27T10:22:46.675Z,51.49
2023-09-27T10:25:25.435Z,51.77
2023-09-27T10:28:02.576Z,52.13
2023-09-27T10:30:52.321Z,49.88
2023-09-27T10:33:20.258Z,50.27
2023-09-27T10:35:47.871Z,50.68
2023-09-27T10:38:14.969Z,49.75
2023-09-27T10:40:47.638Z,49.32
2023-09-27T10:43:36.179Z,50.04
2023-09-27T10:46:05.853Z,49.58
2023-09-27T10:48:33.038Z,51.17
2023-09-27T10:50:59.842Z,52.59
2023-09-27T10:53:26.910Z,50.61
2023-09-27T10:55:54.072Z,49.83
2023-09-27T10:58:20.858Z,49.16
2023-09-27T11:00:58.086Z,48.26
2023-09-27T11:03:34.700Z,49.03
2023-09-27T11:06:15.274Z,47.31
2023-09-27T11:08:43.271Z,49.45
2023-09-27T11:11:13.101Z,47.42
2023-09-27T11:13:46.211Z,47.16
2023-09-27T11:16:19.496Z,49.76
2023-09-27T11:18:47.268Z,48.23
2023-09-27T11:21:14.505Z,47.82
2023-09-27T11:23:58.054Z,47.69
2023-09-27T11:26:32.706Z,50.66
2023-09-27T11:29:06.044Z,47.85
2023-09-27T11:31:33.978Z,49.33
2023-09-27T11:34:16.352Z,48.92
2023-09-27T11:36:47.210Z,46.72
2023-09-27T11:39:17.250Z,47.13
2023-09-27T11:41:45.065Z,48.61
2023-09-27T11:44:19.181Z,48.53
2023-09-27T11:46:48.047Z,47.59
2023-09-27T11:49:15.127Z,46.62
2023-09-27T11:51:42.028Z,47.21
2023-09-27T11:54:09.670Z,45.26
2023-09-27T11:56:37.249Z,47.52
2023-09-27T11:59:04.652Z,46.81
2023-09-27T12:01:31.575Z,47.00
2023-09-27T12:03:59.646Z,47.83
2023-09-27T12:06:29.434Z,48.39
2023-09-27T12:08:58.392Z,48.98
2023-09-27T12:11:26.698Z,50.25
2023-09-27T12:13:53.814Z,47.74
2023-09-27T12:16:21.951Z,49.78
2023-09-27T12:18:48.776Z,48.73
2023-09-27T12:21:16.075Z,49.86
2023-09-27T12:23:44.470Z,47.21
2023-09-27T12:26:11.773Z,47.10
2023-09-27T12:28:57.200Z,46.64
2023-09-27T12:31:24.960Z,45.12
2023-09-27T12:33:52.051Z,46.94
2023-09-27T12:36:19.012Z,46.16
2023-09-27T12:38:45.853Z,45.48
2023-09-27T12:41:31.308Z,44.32
2023-09-27T12:43:58.093Z,44.45
2023-09-27T12:46:24.860Z,45.15
2023-09-27T12:48:52.030Z,45.06
2023-09-27T12:51:19.029Z,44.00
2023-09-27T12:54:04.527Z,45.00
2023-09-27T12:56:50.311Z,44.63
2023-09-27T12:59:17.182Z,46.51
2023-09-27T13:01:43.925Z,46.05
2023-09-27T13:04:11.080Z,47.18
2023-09-27T13:06:38.106Z,45.90
2023-09-27T13:09:05.097Z,46.81
2023-09-27T13:11:51.222Z,47.18
2023-09-27T13:14:18.167Z,47.97
2023-09-27T13:17:03.799Z,46.93
2023-09-27T13:19:30.490Z,48.25
2023-09-27T13:22:15.689Z,47.19
2023-09-27T13:24:43.015Z,47.53
2023-09-27T13:27:09.797Z,47.41
2023-09-27T13:29:36.884Z,48.29
2023-09-27T13:32:22.566Z,48.41
2023-09-27T13:34:49.924Z,48.08
2023-09-27T13:37:19.977Z,49.74
2023-09-27T13:40:05.723Z,50.85
2023-09-27T13:42:33.917Z,48.58
2023-09-27T13:45:19.630Z,49.60
2023-09-27T13:47:47.528Z,49.17
2023-09-27T13:50:14.474Z,49.17
2023-09-27T13:52:43.960Z,48.38
2023-09-27T13:55:29.381Z,50.12
2023-09-27T13:57:57.183Z,50.12
2023-09-27T14:00:23.938Z,50.74
2023-09-27T14:02:50.953Z,50.51
2023-09-27T14:05:18.428Z,49.80
2023-09-27T14:07:45.251Z,50.02
2023-09-27T14:10:30.482Z,50.40
2023-09-27T14:12:59.433Z,49.81
2023-09-27T14:15:26.580Z,50.98
2023-09-27T14:17:54.183Z,49.11
2023-09-27T14:20:22.539Z,47.99
2023-09-27T14:22:49.976Z,48.66
2023-09-27T14:25:16.984Z,48.90
2023-09-27T14:27:43.777Z,48.84
2023-09-27T14:30:11.262Z,48.63
2023-09-27T14:32:38.400Z,48.75
2023-09-27T14:35:07.897Z,49.13
2023-09-27T14:37:36.560Z,49.73
2023-09-27T14:40:05.501Z,49.82
2023-09-27T14:42:51.112Z,49.92
2023-09-27T14:45:30.452Z,50.65
2023-09-27T14:47:58.750Z,50.30
2023-09-27T14:50:44.244Z,50.34
2023-09-27T14:53:11.138Z,50.81
2023-09-27T14:55:37.894Z,51.88
2023-09-27T14:58:05.340Z,51.37
2023-09-27T15:00:32.804Z,50.21
2023-09-27T15:03:00.995Z,49.90
2023-09-27T15:05:27.974Z,51.25
2023-09-27T15:08:13.229Z,50.61
2023-09-27T15:10:59.190Z,51.03
2023-09-27T15:13:27.071Z,50.80
2023-09-27T15:16:12.328Z,50.93
2023-09-27T15:18:39.087Z,51.91
2023-09-27T15:21:24.579Z,52.04
2023-09-27T15:23:51.625Z,51.58
2023-09-27T15:26:19.447Z,50.95
2023-09-27T15:29:05.707Z,51.44
2023-09-27T15:31:32.647Z,51.63
2023-09-27T15:33:59.449Z,51.94
2023-09-27T15:36:29.017Z,51.77
2023-09-27T15:38:55.755Z,52.19
2023-09-27T15:41:22.535Z,51.31
2023-09-27T15:43:50.868Z,51.70
2023-09-27T15:46:17.996Z,52.37
2023-09-27T15:49:03.796Z,52.29
2023-09-27T15:51:30.546Z,51.45
2023-09-27T15:54:11.300Z,51.86
2023-09-27T15:56:44.106Z,52.17
2023-09-27T15:59:11.179Z,52.13
2023-09-27T16:01:56.438Z,52.21
2023-09-27T16:04:24.755Z,51.42
2023-09-27T16:06:53.075Z,53.32
2023-09-27T16:09:19.948Z,54.11
2023-09-27T16:11:46.810Z,53.57
2023-09-27T16:14:32.495Z,54.87
2023-09-27T16:17:39.810Z,52.98
2023-09-27T16:20:08.295Z,53.04
2023-09-27T16:22:35.276Z,51.96
2023-09-27T16:25:04.986Z,52.76
2023-09-27T16:28:09.396Z,52.98
2023-09-27T16:30:36.492Z,55.63
2023-09-27T16:33:06.885Z,55.68
2023-09-27T16:35:55.653Z,56.31
2023-09-27T16:38:22.374Z,56.97
2023-09-27T16:40:49.150Z,57.67
2023-09-27T16:43:34.428Z,57.24
2023-09-27T16:46:06.778Z,57.36
2023-09-27T16:48:33.514Z,57.51
2023-09-27T16:51:18.814Z,57.93
2023-09-27T16:53:46.093Z,58.22
2023-09-27T16:56:12.793Z,58.19
2023-09-27T16:58:39.551Z,58.20
2023-09-27T17:01:06.437Z,58.67
2023-09-27T17:03:33.741Z,59.03
2023-09-27T17:06:00.662Z,59.14
2023-09-27T17:08:45.972Z,58.88
2023-09-27T17:11:12.736Z,59.41
2023-09-27T17:13:39.451Z,58.47
2023-09-27T17:16:25.084Z,58.54
2023-09-27T17:19:10.534Z,57.86
2023-09-27T17:21:39.381Z,57.99
2023-09-27T17:24:06.657Z,55.81
2023-09-27T17:26:33.377Z,56.03
2023-09-27T17:29:00.240Z,56.90
2023-09-27T17:31:45.538Z,55.43
2023-09-27T17:34:12.450Z,54.86
2023-09-27T17:36:39.518Z,57.00
2023-09-27T17:39:06.414Z,56.15
2023-09-27T17:41:33.203Z,55.53
2023-09-27T17:44:03.346Z,56.40
2023-09-27T17:46:30.689Z,56.93
2023-09-27T17:48:58.152Z,56.73
2023-09-27T17:51:24.906Z,56.32
2023-09-27T17:54:29.222Z,56.13
2023-09-27T17:56:55.985Z,57.47
2023-09-27T17:59:22.742Z,57.54
2023-09-27T18:01:49.535Z,57.66
2023-09-27T18:04:16.519Z,56.90
2023-09-27T18:06:43.394Z,57.07
2023-09-27T18:09:10.350Z,56.84
2023-09-27T18:11:37.049Z,56.57
2023-09-27T18:14:23.141Z,55.78
2023-09-27T18:16:49.979Z,55.56
2023-09-27T18:19:35.219Z,55.47
2023-09-27T18:22:03.577Z,56.00
2023-09-27T18:24:30.476Z,56.14
2023-09-27T18:26:57.183Z,56.34
2023-09-27T18:29:42.466Z,56.74
2023-09-27T18:32:09.769Z,56.01
2023-09-27T18:34:36.584Z,56.87
2023-09-27T18:37:03.313Z,57.37
2023-09-27T18:39:48.630Z,57.42
2023-09-27T18:42:16.869Z,57.74
2023-09-27T18:44:45.543Z,57.96
2023-09-27T18:47:12.660Z,58.78
2023-09-27T18:49:58.294Z,58.61
2023-09-27T18:52:43.406Z,58.57
2023-09-27T18:55:28.937Z,57.63
2023-09-27T18:57:55.839Z,58.15
2023-09-27T19:00:42.502Z,57.90
2023-09-27T19:03:27.708Z,58.27
2023-09-27T19:05:54.507Z,59.35
2023-09-27T19:08:39.717Z,59.19
2023-09-27T19:11:06.617Z,59.15
2023-09-27T19:13:33.376Z,58.94
2023-09-27T19:16:00.308Z,59.34
2023-09-27T19:18:27.000Z,59.42
2023-09-27T19:20:53.711Z,59.90
2023-09-27T19:23:20.568Z,59.54
2023-09-27T19:25:48.110Z,59.82
2023-09-27T19:28:52.400Z,59.96
2023-09-27T19:31:56.829Z,60.43
2023-09-27T19:34:42.954Z,60.46
2023-09-27T19:37:28.142Z,60.80
2023-09-27T19:40:13.719Z,61.09
2023-09-27T19:42:43.834Z,61.59
2023-09-27T19:45:11.374Z,61.16
2023-09-27T19:48:15.605Z,61.48
2023-09-27T19:50:42.387Z,61.67
2023-09-27T19:53:10.267Z,61.74
2023-09-27T19:55:37.634Z,61.70
2023-09-27T19:58:04.606Z,61.94
2023-09-27T20:00:31.973Z,62.18
2023-09-27T20:02:58.741Z,62.34
2023-09-27T20:05:28.260Z,62.59
2023-09-27T20:07:55.173Z,62.79
2023-09-27T20:10:22.018Z,63.00
2023-09-27T20:13:07.298Z,63.31
2023-09-27T20:15:35.017Z,63.17
2023-09-27T20:18:01.949Z,63.37
2023-09-27T20:20:28.947Z,63.50
2023-09-27T20:22:55.986Z,63.35
2023-09-27T20:25:22.706Z,63.51
2023-09-27T20:27:49.383Z,64.14
2023-09-27T20:30:34.851Z,63.31
2023-09-27T20:33:20.214Z,63.38
2023-09-27T20:36:05.794Z,63.76
2023-09-27T20:38:51.163Z,63.63
2023-09-27T20:41:21.527Z,63.17
2023-09-27T20:43:48.372Z,63.67
2023-09-27T20:46:34.560Z,63.82
2023-09-27T20:49:01.633Z,64.30
2023-09-27T20:51:28.393Z,64.01
2023-09-27T20:53:55.602Z,63.99
2023-09-27T20:56:22.524Z,64.17
2023-09-27T20:58:49.702Z,64.07
2023-09-27T21:01:29.484Z,64.35
2023-09-27T21:04:14.671Z,64.65
2023-09-27T21:06:41.545Z,64.56
2023-09-27T21:09:08.585Z,64.40
2023-09-27T21:11:35.308Z,64.82
2023-09-27T21:14:02.541Z,64.95
2023-09-27T21:16:48.829Z,64.61
2023-09-27T21:19:15.953Z,64.45
2023-09-27T21:21:42.709Z,64.66
2023-09-27T21:24:28.202Z,64.57
2023-09-27T21:26:54.960Z,64.84
2023-09-27T21:29:21.681Z,64.85
2023-09-27T21:31:48.500Z,64.75
2023-09-27T21:34:15.345Z,65.11
2023-09-27T21:36:42.858Z,65.19
2023-09-27T21:39:11.674Z,65.59
2023-09-27T21:41:38.431Z,65.99
2023-09-27T21:44:43.903Z,66.00
2023-09-27T21:47:29.006Z,65.73
2023-09-27T21:50:14.571Z,64.96
2023-09-27T21:53:00.066Z,65.37
2023-09-27T21:55:26.787Z,65.14
2023-09-27T21:57:53.536Z,64.42
2023-09-27T22:00:29.151Z,65.07
2023-09-27T22:03:15.426Z,65.20
2023-09-27T22:05:42.407Z,65.32
2023-09-27T22:08:18.177Z,65.28
2023-09-27T22:10:45.639Z,65.43
2023-09-27T22:13:24.699Z,65.38
2023-09-27T22:15:52.647Z,65.36
2023-09-27T22:18:20.273Z,65.38
2023-09-27T22:20:48.771Z,65.76
2023-09-27T22:23:32.711Z,65.73
2023-09-27T22:26:00.618Z,65.60
2023-09-27T22:28:30.059Z,65.33
2023-09-27T22:31:01.851Z,64.87
2023-09-27T22:33:47.644Z,64.96
2023-09-27T22:36:14.391Z,65.15
2023-09-27T22:38:41.187Z,64.68
2023-09-27T22:41:17.222Z,64.75
2023-09-27T22:43:45.265Z,65.06
2023-09-27T22:46:12.263Z,64.99
2023-09-27T22:48:57.829Z,65.15
2023-09-27T22:51:24.554Z,64.60
2023-09-27T22:53:51.357Z,65.23
2023-09-27T22:56:18.138Z,64.93
2023-09-27T22:58:45.862Z,65.23
2023-09-27T23:01:29.116Z,65.53
2023-09-27T23:03:56.316Z,65.74
2023-09-27T23:06:24.260Z,65.52
2023-09-27T23:08:51.132Z,65.68
2023-09-27T23:11:21.286Z,64.84
2023-09-27T23:14:00.363Z,65.03
2023-09-27T23:16:27.813Z,65.86
2023-09-27T23:19:15.291Z,65.84
2023-09-27T23:21:46.796Z,65.52
2023-09-27T23:30:14.461Z,66.07
2023-09-27T23:32:41.396Z,65.78
2023-09-27T23:35:08.742Z,65.91
2023-09-27T23:37:53.912Z,66.14
2023-09-27T23:40:20.588Z,65.73
2023-09-27T23:43:06.011Z,65.88
2023-09-27T23:45:51.315Z,63.52
2023-09-27T23:48:18.015Z,63.78
2023-09-27T23:51:03.424Z,65.09
2023-09-27T23:53:30.256Z,65.00
2023-09-27T23:55:56.954Z,65.24
2023-09-27T23:58:24.455Z,64.37
